createdAt,value
2017-08-07T00:00:26.600Z,100970
2017-08-07T00:01:25.555Z,100971
2017-08-07T00:02:25.600Z,100971
2017-08-07T00:03:26.631Z,100971
2017-08-07T00:04:26.993Z,100968
2017-08-07T00:05:25.769Z,100968
2017-08-07T00:06:25.838Z,100970
2017-08-07T00:07:27.585Z,100964
2017-08-07T00:08:27.727Z,100964
2017-08-07T00:09:27.087Z,100965
2017-08-07T00:10:27.941Z,100960
2017-08-07T00:11:26.198Z,100958
2017-08-07T00:12:27.795Z,100959
2017-08-07T00:13:27.114Z,100950
2017-08-07T00:14:26.193Z,100951
2017-08-07T00:15:26.230Z,100946
2017-08-07T00:16:28.279Z,100948
2017-08-07T00:17:26.270Z,100955
2017-08-07T00:18:26.342Z,100956
2017-08-07T00:19:26.435Z,100952
2017-08-07T00:20:27.605Z,100949
2017-08-07T00:21:28.292Z,100942
2017-08-07T00:22:28.732Z,100938
2017-08-07T00:23:27.678Z,100942
2017-08-07T00:24:27.792Z,100937
2017-08-07T00:25:26.754Z,100933
2017-08-07T00:26:27.919Z,100935
2017-08-07T00:27:27.031Z,100931
2017-08-07T00:28:27.277Z,100935
2017-08-07T00:29:28.122Z,100931
2017-08-07T00:30:27.096Z,100936
2017-08-07T00:31:27.157Z,100929
2017-08-07T00:32:28.880Z,100926
2017-08-07T00:33:28.969Z,100936
2017-08-07T00:34:27.618Z,100934
2017-08-07T00:35:28.502Z,100933
2017-08-07T00:36:28.234Z,100931
2017-08-07T00:37:28.436Z,100928
2017-08-07T00:38:29.205Z,100929
2017-08-07T00:39:27.584Z,100924
2017-08-07T00:40:28.041Z,100933
2017-08-07T00:41:27.863Z,100933
2017-08-07T00:42:28.808Z,100934
2017-08-07T00:43:27.988Z,100925
2017-08-07T00:44:29.774Z,100926
2017-08-07T00:45:28.153Z,100929
2017-08-07T00:46:28.513Z,100931
2017-08-07T00:47:28.273Z,100931
2017-08-07T00:48:28.222Z,100927
2017-08-07T00:49:28.256Z,100929
2017-08-07T00:50:29.976Z,100927
2017-08-07T00:51:29.291Z,100929
2017-08-07T00:52:30.379Z,100927
2017-08-07T00:53:28.456Z,100925
2017-08-07T00:54:29.410Z,100924
2017-08-07T00:55:28.531Z,100924
2017-08-07T00:56:28.701Z,100923
2017-08-07T00:57:28.765Z,100924
2017-08-07T00:58:29.125Z,100923
2017-08-07T00:59:29.899Z,100922
2017-08-07T01:00:29.016Z,100917
2017-08-07T01:01:29.095Z,100923
2017-08-07T01:02:30.726Z,100923
2017-08-07T01:03:30.829Z,100916
2017-08-07T01:04:30.572Z,100913
2017-08-07T01:05:29.320Z,100922
2017-08-07T01:06:31.018Z,100919
2017-08-07T01:07:30.355Z,100925
2017-08-07T01:08:31.149Z,100920
2017-08-07T01:09:29.492Z,100919
2017-08-07T01:10:30.831Z,100921
2017-08-07T01:11:29.610Z,100914
2017-08-07T01:12:29.631Z,100917
2017-08-07T01:13:30.628Z,100909
2017-08-07T01:14:29.719Z,100913
2017-08-07T01:15:31.465Z,100913
2017-08-07T01:16:30.210Z,100916
2017-08-07T01:17:29.969Z,100915
2017-08-07T01:18:30.890Z,100912
2017-08-07T01:19:30.967Z,100914
2017-08-07T01:20:30.171Z,100910
2017-08-07T01:21:31.941Z,100913
2017-08-07T01:22:30.613Z,100902
2017-08-07T01:23:30.431Z,100912
2017-08-07T01:24:32.016Z,100907
2017-08-07T01:25:30.353Z,100911
2017-08-07T01:26:30.445Z,100904
2017-08-07T01:27:31.486Z,100909
2017-08-07T01:28:32.654Z,100907
2017-08-07T01:29:31.637Z,100910
2017-08-07T01:30:32.445Z,100908
2017-08-07T01:31:31.921Z,100907
2017-08-07T01:32:31.024Z,100912
2017-08-07T01:33:32.673Z,100903
2017-08-07T01:34:32.452Z,100908
2017-08-07T01:35:31.323Z,100909
2017-08-07T01:36:31.290Z,100908
2017-08-07T01:37:33.000Z,100898
2017-08-07T01:38:32.529Z,100902
2017-08-07T01:39:33.284Z,100901
2017-08-07T01:40:32.832Z,100890
2017-08-07T01:41:33.370Z,100895
2017-08-07T01:42:32.606Z,100895
2017-08-07T01:43:32.663Z,100895
2017-08-07T01:44:33.569Z,100894
2017-08-07T01:45:32.219Z,100894
2017-08-07T01:46:32.852Z,100897
2017-08-07T01:47:32.013Z,100886
2017-08-07T01:48:33.591Z,100892
2017-08-07T01:49:32.032Z,100891
2017-08-07T01:50:33.193Z,100888
2017-08-07T01:51:32.352Z,100891
2017-08-07T01:52:33.845Z,100890
2017-08-07T01:53:32.256Z,100894
2017-08-07T01:54:33.393Z,100887
2017-08-07T01:55:32.450Z,100889
2017-08-07T01:56:32.449Z,100891
2017-08-07T01:57:32.722Z,100878
2017-08-07T01:58:32.413Z,100883
2017-08-07T01:59:32.442Z,100888
2017-08-07T02:00:34.265Z,100889
2017-08-07T02:01:32.632Z,100888
2017-08-07T02:02:33.515Z,100894
2017-08-07T02:03:32.963Z,100891
2017-08-07T02:04:34.300Z,100892
2017-08-07T02:05:34.552Z,100893
2017-08-07T02:06:34.461Z,100890
2017-08-07T02:07:34.680Z,100892
2017-08-07T02:08:34.031Z,100893
2017-08-07T02:09:34.352Z,100889
2017-08-07T02:10:33.100Z,100889
2017-08-07T02:11:33.307Z,100891
2017-08-07T02:12:34.325Z,100888
2017-08-07T02:13:34.173Z,100888
2017-08-07T02:14:33.371Z,100885
2017-08-07T02:15:33.723Z,100881
2017-08-07T02:16:33.503Z,100885
2017-08-07T02:17:33.462Z,100889
2017-08-07T02:18:35.245Z,100886
2017-08-07T02:19:35.445Z,100883
2017-08-07T02:20:34.408Z,100887
2017-08-07T02:21:36.257Z,100886
2017-08-07T02:22:33.665Z,100881
2017-08-07T02:23:33.789Z,100882
2017-08-07T02:24:33.848Z,100883
2017-08-07T02:25:35.389Z,100885
2017-08-07T02:26:34.769Z,100881
2017-08-07T02:27:34.956Z,100880
2017-08-07T02:28:33.900Z,100882
2017-08-07T02:29:35.590Z,100878
2017-08-07T02:30:33.906Z,100881
2017-08-07T02:31:35.000Z,100878
2017-08-07T02:32:34.041Z,100881
2017-08-07T02:33:34.258Z,100880
2017-08-07T02:34:34.031Z,100880
2017-08-07T02:35:35.778Z,100881
2017-08-07T02:36:35.237Z,100879
2017-08-07T02:37:34.219Z,100875
2017-08-07T02:38:34.277Z,100876
2017-08-07T02:39:34.663Z,100873
2017-08-07T02:40:34.402Z,100875
2017-08-07T02:41:36.021Z,100877
2017-08-07T02:42:36.086Z,100881
2017-08-07T02:43:36.218Z,100880
2017-08-07T02:44:34.578Z,100877
2017-08-07T02:45:34.918Z,100876
2017-08-07T02:46:34.647Z,100870
2017-08-07T02:47:34.675Z,100876
2017-08-07T02:48:36.436Z,100873
2017-08-07T02:49:34.723Z,100875
2017-08-07T02:50:34.771Z,100866
2017-08-07T02:51:35.147Z,100875
2017-08-07T02:52:34.816Z,100873
2017-08-07T02:53:34.898Z,100869
2017-08-07T02:54:36.050Z,100875
2017-08-07T02:55:35.007Z,100869
2017-08-07T02:56:36.859Z,100873
2017-08-07T02:57:35.435Z,100866
2017-08-07T02:58:35.267Z,100870
2017-08-07T02:59:35.332Z,100869
2017-08-07T03:00:36.271Z,100869
2017-08-07T03:01:37.117Z,100864
2017-08-07T03:02:37.072Z,100862
2017-08-07T03:03:36.717Z,100864
2017-08-07T03:04:35.504Z,100865
2017-08-07T03:05:37.381Z,100862
2017-08-07T03:06:35.656Z,100861
2017-08-07T03:07:37.507Z,100866
2017-08-07T03:08:37.585Z,100863
2017-08-07T03:09:35.883Z,100867
2017-08-07T03:10:35.952Z,100860
2017-08-07T03:11:37.035Z,100861
2017-08-07T03:12:36.146Z,100857
2017-08-07T03:13:37.049Z,100858
2017-08-07T03:14:36.113Z,100859
2017-08-07T03:15:37.202Z,100857
2017-08-07T03:16:36.220Z,100858
2017-08-07T03:17:36.316Z,100851
2017-08-07T03:18:38.119Z,100848
2017-08-07T03:19:37.478Z,100856
2017-08-07T03:20:38.248Z,100852
2017-08-07T03:21:36.638Z,100858
2017-08-07T03:22:37.669Z,100849
2017-08-07T03:23:36.775Z,100855
2017-08-07T03:24:37.727Z,100856
2017-08-07T03:25:37.793Z,100851
2017-08-07T03:26:36.860Z,100855
2017-08-07T03:27:36.954Z,100853
2017-08-07T03:28:38.779Z,100851
2017-08-07T03:29:38.069Z,100857
2017-08-07T03:30:38.129Z,100851
2017-08-07T03:31:37.254Z,100852
2017-08-07T03:32:37.212Z,100854
2017-08-07T03:33:37.266Z,100848
2017-08-07T03:34:38.375Z,100849
2017-08-07T03:35:37.312Z,100851
2017-08-07T03:36:37.435Z,100846
2017-08-07T03:37:37.461Z,100849
2017-08-07T03:38:37.466Z,100845
2017-08-07T03:39:37.444Z,100845
2017-08-07T03:40:39.297Z,100846
2017-08-07T03:41:38.552Z,100842
2017-08-07T03:42:37.620Z,100851
2017-08-07T03:43:37.635Z,100848
2017-08-07T03:44:37.628Z,100848
2017-08-07T03:45:37.729Z,100849
2017-08-07T03:46:37.893Z,100842
2017-08-07T03:47:37.971Z,100847
2017-08-07T03:48:37.955Z,100847
2017-08-07T03:49:37.975Z,100844
2017-08-07T03:50:38.000Z,100848
2017-08-07T03:51:39.786Z,100845
2017-08-07T03:52:38.045Z,100843
2017-08-07T03:53:38.124Z,100836
2017-08-07T03:54:38.302Z,100841
2017-08-07T03:55:38.394Z,100842
2017-08-07T03:56:40.049Z,100845
2017-08-07T03:57:38.527Z,100840
2017-08-07T03:58:39.583Z,100840
2017-08-07T03:59:38.556Z,100839
2017-08-07T04:00:38.734Z,100841
2017-08-07T04:01:39.742Z,100841
2017-08-07T04:02:38.868Z,100845
2017-08-07T04:03:39.740Z,100841
2017-08-07T04:04:40.646Z,100841
2017-08-07T04:05:38.958Z,100842
2017-08-07T04:06:40.806Z,100838
2017-08-07T04:07:39.039Z,100841
2017-08-07T04:08:40.823Z,100831
2017-08-07T04:09:40.830Z,100840
2017-08-07T04:10:39.233Z,100842
2017-08-07T04:11:39.259Z,100839
2017-08-07T04:12:39.336Z,100840
2017-08-07T04:13:39.275Z,100838
2017-08-07T04:14:39.374Z,100832
2017-08-07T04:15:39.572Z,100838
2017-08-07T04:16:40.503Z,100832
2017-08-07T04:17:40.677Z,100841
2017-08-07T04:18:39.661Z,100837
2017-08-07T04:19:41.400Z,100841
2017-08-07T04:20:41.460Z,100836
2017-08-07T04:21:39.959Z,100837
2017-08-07T04:22:40.830Z,100837
2017-08-07T04:23:40.013Z,100837
2017-08-07T04:24:41.085Z,100828
2017-08-07T04:25:40.198Z,100837
2017-08-07T04:26:41.798Z,100836
2017-08-07T04:27:41.125Z,100837
2017-08-07T04:28:40.322Z,100841
2017-08-07T04:29:42.075Z,100845
2017-08-07T04:30:40.344Z,100843
2017-08-07T04:31:42.030Z,100844
2017-08-07T04:32:41.499Z,100846
2017-08-07T04:33:40.608Z,100848
2017-08-07T04:34:40.684Z,100842
2017-08-07T04:35:41.579Z,100846
2017-08-07T04:36:42.469Z,100842
2017-08-07T04:37:40.858Z,100839
2017-08-07T04:38:40.770Z,100837
2017-08-07T04:39:42.847Z,100841
2017-08-07T04:40:41.812Z,100835
2017-08-07T04:41:40.999Z,100829
2017-08-07T04:42:41.892Z,100835
2017-08-07T04:43:42.082Z,100835
2017-08-07T04:44:41.983Z,100839
2017-08-07T04:45:42.293Z,100835
2017-08-07T04:46:42.817Z,100836
2017-08-07T04:47:41.186Z,100836
2017-08-07T04:48:41.375Z,100837
2017-08-07T04:49:42.951Z,100834
2017-08-07T04:50:43.005Z,100838
2017-08-07T04:51:43.319Z,100835
2017-08-07T04:52:43.181Z,100833
2017-08-07T04:53:41.537Z,100844
2017-08-07T04:54:41.557Z,100840
2017-08-07T04:55:41.605Z,100841
2017-08-07T04:56:42.611Z,100839
2017-08-07T04:57:41.963Z,100842
2017-08-07T04:58:41.749Z,100831
2017-08-07T04:59:43.478Z,100840
2017-08-07T05:00:41.719Z,100830
2017-08-07T05:01:42.764Z,100836
2017-08-07T05:02:42.750Z,100844
2017-08-07T05:03:43.822Z,100840
2017-08-07T05:04:42.854Z,100843
2017-08-07T05:05:42.930Z,100839
2017-08-07T05:06:42.007Z,100841
2017-08-07T05:07:43.862Z,100844
2017-08-07T05:08:42.219Z,100831
2017-08-07T05:09:43.481Z,100840
2017-08-07T05:10:44.006Z,100842
2017-08-07T05:11:42.317Z,100844
2017-08-07T05:12:42.334Z,100842
2017-08-07T05:13:43.994Z,100842
2017-08-07T05:14:44.091Z,100846
2017-08-07T05:15:43.774Z,100845
2017-08-07T05:16:43.635Z,100846
2017-08-07T05:17:42.666Z,100841
2017-08-07T05:18:43.678Z,100847
2017-08-07T05:19:45.303Z,100842
2017-08-07T05:20:44.482Z,100843
2017-08-07T05:21:44.789Z,100841
2017-08-07T05:22:44.492Z,100844
2017-08-07T05:23:44.669Z,100841
2017-08-07T05:24:43.021Z,100841
2017-08-07T05:25:44.806Z,100843
2017-08-07T05:26:43.589Z,100834
2017-08-07T05:27:43.432Z,100837
2017-08-07T05:28:44.127Z,100831
2017-08-07T05:29:44.139Z,100839
2017-08-07T05:30:44.934Z,100834
2017-08-07T05:31:43.466Z,100838
2017-08-07T05:32:45.176Z,100838
2017-08-07T05:33:45.376Z,100838
2017-08-07T05:34:45.165Z,100839
2017-08-07T05:35:43.557Z,100837
2017-08-07T05:36:45.371Z,100837
2017-08-07T05:37:45.275Z,100833
2017-08-07T05:38:44.599Z,100833
2017-08-07T05:39:45.813Z,100836
2017-08-07T05:40:44.833Z,100835
2017-08-07T05:41:43.822Z,100834
2017-08-07T05:42:43.848Z,100836
2017-08-07T05:43:46.346Z,100835
2017-08-07T05:44:44.545Z,100835
2017-08-07T05:45:44.376Z,100837
2017-08-07T05:46:44.589Z,100832
2017-08-07T05:47:44.130Z,100831
2017-08-07T05:48:45.998Z,100831
2017-08-07T05:49:44.407Z,100823
2017-08-07T05:50:44.360Z,100812
2017-08-07T05:51:46.473Z,100812
2017-08-07T05:52:45.388Z,100823
2017-08-07T05:53:45.497Z,100825
2017-08-07T05:54:44.746Z,100824
2017-08-07T05:55:46.387Z,100822
2017-08-07T05:56:44.794Z,100811
2017-08-07T05:57:45.075Z,100825
2017-08-07T05:58:44.869Z,100820
2017-08-07T05:59:44.909Z,100811
2017-08-07T06:00:46.643Z,100821
2017-08-07T06:01:45.580Z,100818
2017-08-07T06:02:45.101Z,100816
2017-08-07T06:03:45.177Z,100824
2017-08-07T06:04:47.372Z,100822
2017-08-07T06:05:46.169Z,100824
2017-08-07T06:06:47.040Z,100823
2017-08-07T06:07:45.316Z,100821
2017-08-07T06:08:47.074Z,100829
2017-08-07T06:09:46.023Z,100825
2017-08-07T06:10:47.191Z,100829
2017-08-07T06:11:47.205Z,100828
2017-08-07T06:12:47.262Z,100830
2017-08-07T06:13:47.306Z,100833
2017-08-07T06:14:50.682Z,100825
2017-08-07T06:15:46.497Z,100832
2017-08-07T06:16:47.473Z,100839
2017-08-07T06:17:48.301Z,100822
2017-08-07T06:18:45.991Z,100822
2017-08-07T06:19:46.563Z,100830
2017-08-07T06:20:47.827Z,100801
2017-08-07T06:21:45.996Z,100835
2017-08-07T06:22:45.997Z,100831
2017-08-07T06:23:47.108Z,100830
2017-08-07T06:24:47.889Z,100825
2017-08-07T06:25:46.245Z,100826
2017-08-07T06:26:47.299Z,100823
2017-08-07T06:27:46.399Z,100825
2017-08-07T06:28:46.335Z,100829
2017-08-07T06:29:47.372Z,100828
2017-08-07T06:30:47.833Z,100828
2017-08-07T06:31:48.957Z,100827
2017-08-07T06:32:46.520Z,100821
2017-08-07T06:33:46.573Z,100826
2017-08-07T06:34:47.764Z,100828
2017-08-07T06:35:46.651Z,100830
2017-08-07T06:36:46.689Z,100824
2017-08-07T06:37:48.588Z,100819
2017-08-07T06:38:47.861Z,100818
2017-08-07T06:39:46.992Z,100815
2017-08-07T06:40:48.754Z,100814
2017-08-07T06:41:47.004Z,100819
2017-08-07T06:42:47.706Z,100805
2017-08-07T06:43:48.015Z,100813
2017-08-07T06:44:48.105Z,100811
2017-08-07T06:45:47.220Z,100812
2017-08-07T06:46:47.287Z,100816
2017-08-07T06:47:47.281Z,100810
2017-08-07T06:48:47.401Z,100808
2017-08-07T06:49:47.366Z,100800
2017-08-07T06:50:48.875Z,100810
2017-08-07T06:51:48.581Z,100806
2017-08-07T06:52:47.917Z,100804
2017-08-07T06:53:47.611Z,100809
2017-08-07T06:54:49.382Z,100809
2017-08-07T06:55:49.551Z,100801
2017-08-07T06:56:48.730Z,100802
2017-08-07T06:57:47.960Z,100803
2017-08-07T06:58:49.019Z,100800
2017-08-07T06:59:48.090Z,100803
2017-08-07T07:00:49.881Z,100800
2017-08-07T07:01:49.242Z,100801
2017-08-07T07:02:48.718Z,100800
2017-08-07T07:03:48.305Z,100799
2017-08-07T07:04:48.386Z,100796
2017-08-07T07:05:49.433Z,100794
2017-08-07T07:06:49.326Z,100792
2017-08-07T07:07:48.431Z,100791
2017-08-07T07:08:48.450Z,100791
2017-08-07T07:09:48.488Z,100786
2017-08-07T07:10:48.472Z,100793
2017-08-07T07:11:48.570Z,100790
2017-08-07T07:12:50.322Z,100791
2017-08-07T07:13:48.710Z,100788
2017-08-07T07:14:49.041Z,100792
2017-08-07T07:15:48.786Z,100790
2017-08-07T07:16:51.039Z,100795
2017-08-07T07:17:50.609Z,100796
2017-08-07T07:18:49.690Z,100795
2017-08-07T07:19:49.891Z,100793
2017-08-07T07:20:50.060Z,100786
2017-08-07T07:21:50.033Z,100793
2017-08-07T07:22:50.101Z,100791
2017-08-07T07:23:50.639Z,100798
2017-08-07T07:24:51.087Z,100799
2017-08-07T07:25:49.516Z,100797
2017-08-07T07:26:49.689Z,100794
2017-08-07T07:27:49.497Z,100794
2017-08-07T07:28:52.661Z,100787
2017-08-07T07:29:51.893Z,100789
2017-08-07T07:30:51.426Z,100784
2017-08-07T07:31:51.874Z,100787
2017-08-07T07:32:49.881Z,100777
2017-08-07T07:33:52.207Z,100788
2017-08-07T07:34:51.315Z,100794
2017-08-07T07:35:50.727Z,100785
2017-08-07T07:36:50.227Z,100784
2017-08-07T07:37:50.044Z,100783
2017-08-07T07:38:51.764Z,100784
2017-08-07T07:39:50.273Z,100784
2017-08-07T07:40:51.759Z,100786
2017-08-07T07:41:57.693Z,100776
2017-08-07T07:42:54.822Z,100778
2017-08-07T07:43:50.421Z,100782
2017-08-07T07:44:51.334Z,100774
2017-08-07T07:45:50.455Z,100778
2017-08-07T07:46:51.433Z,100782
2017-08-07T07:47:51.602Z,100777
2017-08-07T07:48:52.204Z,100776
2017-08-07T07:49:50.642Z,100766
2017-08-07T07:50:57.487Z,100778
2017-08-07T07:51:50.840Z,100775
2017-08-07T07:53:00.648Z,100771
2017-08-07T07:53:50.837Z,100775
2017-08-07T07:55:53.463Z,100776
2017-08-07T07:56:52.784Z,100770
2017-08-07T07:57:57.899Z,100774
2017-08-07T07:58:53.353Z,100771
2017-08-07T08:00:52.756Z,100770
2017-08-07T08:01:52.544Z,100770
2017-08-07T08:02:52.961Z,100766
2017-08-07T08:03:53.254Z,100765
2017-08-07T08:04:53.262Z,100758
2017-08-07T08:05:51.671Z,100755
2017-08-07T08:06:52.616Z,100769
2017-08-07T08:07:51.680Z,100768
2017-08-07T08:08:53.386Z,100768
2017-08-07T08:09:53.350Z,100770
2017-08-07T08:10:51.680Z,100773
2017-08-07T08:12:52.049Z,100768
2017-08-07T08:13:52.891Z,100762
2017-08-07T08:14:54.080Z,100762
2017-08-07T08:15:52.945Z,100756
2017-08-07T08:16:53.024Z,100757
2017-08-07T08:17:53.219Z,100752
2017-08-07T08:18:52.392Z,100747
2017-08-07T08:19:53.174Z,100745
2017-08-07T08:20:53.296Z,100748
2017-08-07T08:21:53.002Z,100747
2017-08-07T08:22:53.462Z,100754
2017-08-07T08:23:53.422Z,100750
2017-08-07T08:24:53.057Z,100752
2017-08-07T08:25:52.907Z,100754
2017-08-07T08:26:54.685Z,100751
2017-08-07T08:27:54.962Z,100755
2017-08-07T08:28:54.219Z,100745
2017-08-07T08:29:54.929Z,100752
2017-08-07T08:30:52.711Z,100753
2017-08-07T08:31:52.670Z,100752
2017-08-07T08:32:55.180Z,100755
2017-08-07T08:33:53.470Z,100753
2017-08-07T08:34:54.592Z,100752
2017-08-07T08:35:54.652Z,100754
2017-08-07T08:36:54.239Z,100761
2017-08-07T08:37:53.201Z,100753
2017-08-07T08:38:54.017Z,100753
2017-08-07T08:39:54.107Z,100753
2017-08-07T08:40:53.211Z,100752
2017-08-07T08:41:54.896Z,100750
2017-08-07T08:42:53.284Z,100759
2017-08-07T08:43:55.067Z,100754
2017-08-07T08:44:55.248Z,100751
2017-08-07T08:45:54.089Z,100750
2017-08-07T08:46:55.103Z,100751
2017-08-07T08:47:54.724Z,100747
2017-08-07T08:48:54.430Z,100750
2017-08-07T08:49:55.199Z,100746
2017-08-07T08:50:55.867Z,100746
2017-08-07T08:51:55.356Z,100753
2017-08-07T08:52:53.865Z,100755
2017-08-07T08:53:53.831Z,100750
2017-08-07T08:54:54.863Z,100749
2017-08-07T08:55:55.596Z,100752
2017-08-07T08:56:55.636Z,100754
2017-08-07T08:57:53.957Z,100756
2017-08-07T08:58:55.527Z,100755
2017-08-07T08:59:55.068Z,100750
2017-08-07T09:00:55.613Z,100750
2017-08-07T09:01:55.014Z,100743
2017-08-07T09:02:56.060Z,100748
2017-08-07T09:03:54.158Z,100749
2017-08-07T09:04:55.963Z,100740
2017-08-07T09:05:55.900Z,100748
2017-08-07T09:06:55.367Z,100746
2017-08-07T09:07:54.370Z,100737
2017-08-07T09:08:55.542Z,100738
2017-08-07T09:09:54.762Z,100742
2017-08-07T09:10:55.669Z,100747
2017-08-07T09:11:54.716Z,100741
2017-08-07T09:12:56.541Z,100740
2017-08-07T09:13:54.757Z,100741
2017-08-07T09:14:55.877Z,100738
2017-08-07T09:15:54.824Z,100727
2017-08-07T09:16:54.840Z,100732
2017-08-07T09:17:54.928Z,100736
2017-08-07T09:18:55.021Z,100736
2017-08-07T09:19:56.769Z,100735
2017-08-07T09:20:56.755Z,100734
2017-08-07T09:21:55.164Z,100736
2017-08-07T09:22:55.194Z,100737
2017-08-07T09:23:57.041Z,100734
2017-08-07T09:24:56.382Z,100726
2017-08-07T09:25:56.512Z,100737
2017-08-07T09:26:55.621Z,100737
2017-08-07T09:27:55.720Z,100730
2017-08-07T09:28:56.784Z,100738
2017-08-07T09:29:58.383Z,100734
2017-08-07T09:30:55.648Z,100737
2017-08-07T09:31:56.171Z,100733
2017-08-07T09:32:56.371Z,100730
2017-08-07T09:33:57.429Z,100720
2017-08-07T09:34:55.901Z,100726
2017-08-07T09:35:55.983Z,100723
2017-08-07T09:36:56.801Z,100725
2017-08-07T09:37:58.293Z,100726
2017-08-07T09:38:58.832Z,100725
2017-08-07T09:39:55.998Z,100725
2017-08-07T09:40:56.109Z,100722
2017-08-07T09:41:57.190Z,100721
2017-08-07T09:42:57.055Z,100723
2017-08-07T09:43:56.275Z,100722
2017-08-07T09:44:56.310Z,100719
2017-08-07T09:45:59.360Z,100721
2017-08-07T09:46:57.270Z,100717
2017-08-07T09:47:56.486Z,100707
2017-08-07T09:48:56.380Z,100707
2017-08-07T09:49:56.520Z,100714
2017-08-07T09:50:56.523Z,100716
2017-08-07T09:51:58.251Z,100715
2017-08-07T09:52:59.862Z,100714
2017-08-07T09:54:00.575Z,100710
2017-08-07T09:54:59.801Z,100705
2017-08-07T09:55:58.848Z,100703
2017-08-07T09:56:58.505Z,100714
2017-08-07T09:57:56.954Z,100712
2017-08-07T09:58:58.740Z,100714
2017-08-07T09:59:57.799Z,100708
2017-08-07T10:00:58.832Z,100708
2017-08-07T10:01:58.978Z,100702
2017-08-07T10:03:00.092Z,100705
2017-08-07T10:03:57.266Z,100702
2017-08-07T10:04:58.311Z,100705
2017-08-07T10:05:58.046Z,100703
2017-08-07T10:06:58.315Z,100705
2017-08-07T10:07:57.462Z,100693
2017-08-07T10:08:57.518Z,100701
2017-08-07T10:09:59.296Z,100707
2017-08-07T10:10:57.829Z,100704
2017-08-07T10:11:58.257Z,100697
2017-08-07T10:13:01.195Z,100703
2017-08-07T10:13:59.377Z,100699
2017-08-07T10:14:57.902Z,100701
2017-08-07T10:16:00.294Z,100700
2017-08-07T10:16:59.562Z,100701
2017-08-07T10:17:59.696Z,100698
2017-08-07T10:18:59.743Z,100699
2017-08-07T10:19:58.018Z,100706
2017-08-07T10:20:59.990Z,100700
2017-08-07T10:21:59.460Z,100702
2017-08-07T10:22:59.004Z,100696
2017-08-07T10:24:01.110Z,100703
2017-08-07T10:24:59.928Z,100697
2017-08-07T10:25:58.258Z,100693
2017-08-07T10:26:59.284Z,100692
2017-08-07T10:27:58.445Z,100688
2017-08-07T10:28:59.434Z,100684
2017-08-07T10:30:00.758Z,100683
2017-08-07T10:30:59.050Z,100671
2017-08-07T10:32:01.358Z,100668
2017-08-07T10:32:58.637Z,100669
2017-08-07T10:33:59.755Z,100672
2017-08-07T10:34:58.825Z,100673
2017-08-07T10:35:59.815Z,100677
2017-08-07T10:37:00.555Z,100675
2017-08-07T10:37:58.850Z,100682
2017-08-07T10:39:00.518Z,100677
2017-08-07T10:40:00.593Z,100669
2017-08-07T10:40:59.081Z,100679
2017-08-07T10:41:59.128Z,100672
2017-08-07T10:42:59.231Z,100670
2017-08-07T10:44:00.418Z,100662
2017-08-07T10:44:59.274Z,100676
2017-08-07T10:45:59.398Z,100675
2017-08-07T10:47:00.392Z,100670
2017-08-07T10:48:01.798Z,100677
2017-08-07T10:49:01.182Z,100680
2017-08-07T10:50:01.028Z,100681
2017-08-07T10:50:59.490Z,100672
2017-08-07T10:51:59.411Z,100668
2017-08-07T10:52:59.707Z,100669
2017-08-07T10:53:59.609Z,100667
2017-08-07T10:54:59.876Z,100658
2017-08-07T10:55:59.707Z,100674
2017-08-07T10:57:01.112Z,100675
2017-08-07T10:58:04.357Z,100671
2017-08-07T11:02:01.152Z,100668
2017-08-07T11:03:05.312Z,100660
2017-08-07T11:04:01.809Z,100669
2017-08-07T11:05:02.404Z,100661
2017-08-07T11:06:01.196Z,100661
2017-08-07T11:07:00.820Z,100658
2017-08-07T11:08:01.241Z,100647
2017-08-07T11:09:01.531Z,100657
2017-08-07T11:10:02.210Z,100657
2017-08-07T11:11:00.417Z,100657
2017-08-07T11:12:02.251Z,100656
2017-08-07T11:13:01.284Z,100654
2017-08-07T11:14:01.644Z,100649
2017-08-07T11:15:02.841Z,100653
2017-08-07T11:16:01.634Z,100652
2017-08-07T11:17:01.537Z,100650
2017-08-07T11:18:00.609Z,100642
2017-08-07T11:19:02.432Z,100647
2017-08-07T11:20:01.737Z,100647
2017-08-07T11:21:00.866Z,100644
2017-08-07T11:22:02.188Z,100643
2017-08-07T11:23:02.032Z,100642
2017-08-07T11:24:01.833Z,100644
2017-08-07T11:25:02.482Z,100646
2017-08-07T11:26:02.433Z,100648
2017-08-07T11:27:02.790Z,100640
2017-08-07T11:28:04.016Z,100638
2017-08-07T11:29:04.517Z,100645
2017-08-07T11:30:02.858Z,100637
2017-08-07T11:31:02.982Z,100639
2017-08-07T11:32:02.219Z,100632
2017-08-07T11:33:01.458Z,100646
2017-08-07T11:34:03.065Z,100638
2017-08-07T11:35:01.563Z,100631
2017-08-07T11:36:02.829Z,100640
2017-08-07T11:37:01.561Z,100639
2017-08-07T11:38:03.528Z,100638
2017-08-07T11:39:01.701Z,100635
2017-08-07T11:40:01.789Z,100624
2017-08-07T11:41:01.837Z,100631
2017-08-07T11:42:01.826Z,100631
2017-08-07T11:43:03.618Z,100628
2017-08-07T11:44:03.940Z,100618
2017-08-07T11:45:02.014Z,100626
2017-08-07T11:46:03.722Z,100623
2017-08-07T11:47:03.552Z,100612
2017-08-07T11:48:03.770Z,100618
2017-08-07T11:49:05.488Z,100616
2017-08-07T11:50:03.858Z,100623
2017-08-07T11:51:04.487Z,100621
2017-08-07T11:52:05.457Z,100624
2017-08-07T11:53:02.906Z,100618
2017-08-07T11:54:03.609Z,100614
2017-08-07T11:55:04.899Z,100617
2017-08-07T11:56:04.274Z,100609
2017-08-07T11:57:03.449Z,100616
2017-08-07T11:58:04.123Z,100616
2017-08-07T11:59:02.590Z,100615
2017-08-07T12:00:02.656Z,100616
2017-08-07T12:01:02.743Z,100617
2017-08-07T12:02:03.795Z,100615
2017-08-07T12:03:02.807Z,100616
2017-08-07T12:04:04.570Z,100616
2017-08-07T12:05:02.948Z,100621
2017-08-07T12:06:04.864Z,100617
2017-08-07T12:07:05.002Z,100613
2017-08-07T12:08:03.934Z,100596
2017-08-07T12:09:03.218Z,100607
2017-08-07T12:10:03.746Z,100611
2017-08-07T12:11:04.670Z,100605
2017-08-07T12:12:03.317Z,100608
2017-08-07T12:13:05.660Z,100608
2017-08-07T12:14:04.986Z,100601
2017-08-07T12:15:05.075Z,100594
2017-08-07T12:16:05.754Z,100608
2017-08-07T12:17:05.249Z,100607
2017-08-07T12:18:04.614Z,100607
2017-08-07T12:19:05.355Z,100600
2017-08-07T12:20:04.540Z,100593
2017-08-07T12:21:04.364Z,100599
2017-08-07T12:22:04.631Z,100605
2017-08-07T12:23:04.547Z,100591
2017-08-07T12:24:04.734Z,100603
2017-08-07T12:25:05.616Z,100595
2017-08-07T12:26:05.451Z,100597
2017-08-07T12:27:03.931Z,100590
2017-08-07T12:28:05.181Z,100590
2017-08-07T12:29:05.453Z,100594
2017-08-07T12:30:03.950Z,100585
2017-08-07T12:31:05.733Z,100586
2017-08-07T12:32:05.714Z,100585
2017-08-07T12:33:04.053Z,100575
2017-08-07T12:34:04.636Z,100584
2017-08-07T12:35:04.185Z,100579